Terminal Aerodrome Forecast
Issued by NWS San Angelo, TX

Home | Current Version | Previous Version | Text Only | Print | Product List | Glossary On
Versions: 1 2 3 4 5 6 7 8 9 10 11 12 13 14 15 16 17 18 19 20 21 22 23 24
680
FTUS44 KSJT 051725
TAFSJT
TAF
KSJT 051725Z 0518/0618 18005KT P6SM -RA BKN050
     FM052000 24008KT P6SM BKN050
     FM060100 27008KT P6SM SCT100
     FM061400 33012KT P6SM SCT025=

USA.gov is the U.S. government's official web portal to all federal, state and local government web resources and services.